Terminal Aerodrome Forecast
Issued by NWS

Home | Current Version | Previous Version | Text Only | Print | Product List | Glossary On
Versions: 1 2 3 4 5 6 7 8 9 10 11 12 13
441
FTUS41 KBTV 241145 AAA
TAFMPV
TAF AMD
KMPV 241145Z 2412/2512 00000KT P6SM SCT150
      TEMPO 2412/2413 1 1/2SM BR FEW001
     FM241400 00000KT P6SM VCSH OVC060
     FM241700 00000KT P6SM VCSH OVC025
     FM242300 VRB03KT P6SM OVC020
     FM250200 17004KT P6SM BKN030 WS020/21035KT
     FM250400 17006KT P6SM BKN020
     FM250800 17008KT P6SM BKN003=

USA.gov is the U.S. government's official web portal to all federal, state and local government web resources and services.